Centerburg, Ohio
Current Conditions -  °F | °C
As of 5:56 PM on Thursday 20 Nov 2014 (Local Time) from K4I3 Reporting Station
Scattered Clouds Scattered Clouds  
Wind Chill: 14°   Ceiling: Unl
Heat Index: 25°   Visibility: 10mi
Dew Point: 16°   Wind: 12mph
Humidity: 69%   Direction: 260°W
Pressure: 30.07"   Gusts: 21mph
Location:  40.3°N, 82.7°W
Report Text: K4I3 202256Z AUTO 26010G18KT 10SM SCT008 SCT014 SCT020 M04/M09 A3007 RMK AO2
Loading
Personal Weather Stations






























Interactive Weather Map New forecast layout! Learn more

10-Day Weather Forecast

Advertisements
Track Severe Weather on mobile